createdAt,value
2019-02-17T00:00:58.519Z,89.00
2019-02-17T00:03:28.855Z,89.00
2019-02-17T00:05:59.198Z,89.10
2019-02-17T00:08:29.545Z,89.10
2019-02-17T00:10:59.903Z,89.20
2019-02-17T00:13:30.526Z,89.30
2019-02-17T00:16:03.695Z,89.30
2019-02-17T00:18:34.074Z,89.30
2019-02-17T00:21:04.420Z,89.40
2019-02-17T00:23:34.773Z,89.30
2019-02-17T00:26:05.122Z,89.40
2019-02-17T00:28:35.619Z,89.40
2019-02-17T00:31:06.001Z,89.40
2019-02-17T00:33:36.332Z,89.30
2019-02-17T00:36:06.680Z,89.30
2019-02-17T00:38:37.013Z,89.30
2019-02-17T00:41:07.371Z,89.40
2019-02-17T00:43:37.701Z,89.50
2019-02-17T00:46:08.060Z,89.40
2019-02-17T00:48:38.390Z,89.50
2019-02-17T00:51:08.744Z,89.60
2019-02-17T00:53:39.079Z,88.80
2019-02-17T00:56:09.435Z,89.50
2019-02-17T00:58:39.778Z,89.50
2019-02-17T01:01:10.141Z,89.60
2019-02-17T01:03:40.475Z,89.70
2019-02-17T01:06:10.806Z,89.60
2019-02-17T01:08:41.164Z,89.70
2019-02-17T01:11:11.494Z,89.70
2019-02-17T01:13:41.847Z,89.70
2019-02-17T01:16:12.179Z,89.80
2019-02-17T01:18:42.549Z,89.90
2019-02-17T01:21:12.888Z,89.90
2019-02-17T01:23:43.251Z,89.70
2019-02-17T01:26:13.585Z,89.80
2019-02-17T01:28:43.927Z,90.10
2019-02-17T01:31:14.284Z,89.90
2019-02-17T01:34:07.106Z,90.00
2019-02-17T01:36:37.453Z,89.80
2019-02-17T01:39:09.076Z,89.90
2019-02-17T01:41:39.394Z,89.80
2019-02-17T01:44:09.876Z,90.00
2019-02-17T01:46:40.220Z,89.80
2019-02-17T01:49:10.565Z,89.80
2019-02-17T01:51:40.889Z,89.70
2019-02-17T01:54:11.244Z,89.80
2019-02-17T01:56:41.557Z,89.90
2019-02-17T01:59:11.898Z,89.80
2019-02-17T02:01:42.258Z,89.70
2019-02-17T02:04:12.603Z,89.80
2019-02-17T02:06:43.020Z,89.80
2019-02-17T02:09:13.355Z,89.80
2019-02-17T02:11:43.696Z,90.00
2019-02-17T02:14:14.031Z,90.00
2019-02-17T02:16:44.397Z,89.80
2019-02-17T02:19:14.726Z,89.90
2019-02-17T02:21:45.078Z,90.00
2019-02-17T02:24:15.412Z,90.00
2019-02-17T02:26:45.766Z,90.00
2019-02-17T02:29:16.110Z,90.00
2019-02-17T02:31:46.454Z,90.00
2019-02-17T02:34:16.793Z,90.00
2019-02-17T02:36:47.132Z,90.10
2019-02-17T02:39:17.474Z,90.10
2019-02-17T02:41:47.834Z,90.10
2019-02-17T02:44:18.175Z,90.10
2019-02-17T02:46:48.528Z,90.10
2019-02-17T02:49:18.853Z,90.10
2019-02-17T02:51:49.271Z,90.10
2019-02-17T02:54:19.605Z,90.10
2019-02-17T02:56:49.951Z,90.20
2019-02-17T02:59:20.282Z,90.20
2019-02-17T03:01:50.781Z,90.10
2019-02-17T03:04:21.110Z,90.20
2019-02-17T03:06:53.093Z,90.20
2019-02-17T03:09:23.421Z,90.20
2019-02-17T03:11:53.756Z,90.20
2019-02-17T03:14:24.087Z,90.10
2019-02-17T03:16:54.450Z,90.20
2019-02-17T03:19:24.798Z,90.20
2019-02-17T03:21:55.146Z,90.10
2019-02-17T03:24:25.471Z,90.20
2019-02-17T03:26:55.815Z,90.20
2019-02-17T03:29:26.147Z,90.10
2019-02-17T03:31:56.501Z,90.10
2019-02-17T03:34:26.835Z,90.10
2019-02-17T03:36:57.177Z,90.20
2019-02-17T03:39:27.574Z,90.20
2019-02-17T03:41:57.999Z,90.10
2019-02-17T03:44:28.401Z,90.20
2019-02-17T03:46:58.760Z,90.30
2019-02-17T03:49:29.081Z,90.20
2019-02-17T03:51:59.420Z,90.20
2019-02-17T03:54:29.757Z,90.20
2019-02-17T03:57:00.104Z,90.20
2019-02-17T03:59:30.454Z,90.20
2019-02-17T04:02:00.812Z,90.30
2019-02-17T04:04:31.158Z,90.30
2019-02-17T04:07:01.506Z,90.20
2019-02-17T04:09:31.914Z,90.30
2019-02-17T04:12:02.294Z,90.20
2019-02-17T04:14:45.022Z,90.20
2019-02-17T04:17:15.451Z,90.50
2019-02-17T04:19:45.789Z,90.30
2019-02-17T04:22:16.123Z,90.20
2019-02-17T04:24:46.474Z,90.30
2019-02-17T04:27:16.807Z,90.30
2019-02-17T04:29:47.143Z,90.20
2019-02-17T04:32:17.549Z,90.20
2019-02-17T04:34:47.838Z,90.20
2019-02-17T04:37:18.427Z,90.20
2019-02-17T04:39:48.772Z,90.60
2019-02-17T04:42:19.122Z,90.30
2019-02-17T04:44:49.461Z,90.40
2019-02-17T04:47:19.900Z,90.40
2019-02-17T04:49:50.243Z,90.30
2019-02-17T04:52:20.588Z,90.40
2019-02-17T04:54:50.925Z,90.50
2019-02-17T04:57:21.522Z,90.70
2019-02-17T04:59:51.929Z,90.60
2019-02-17T05:02:22.268Z,90.60
2019-02-17T05:04:52.615Z,90.70
2019-02-17T05:07:22.969Z,90.90
2019-02-17T05:09:53.294Z,90.80
2019-02-17T05:12:23.725Z,90.80
2019-02-17T05:14:54.062Z,90.80
2019-02-17T05:17:24.424Z,90.80
2019-02-17T05:19:54.767Z,90.80
2019-02-17T05:22:25.110Z,90.90
2019-02-17T05:24:55.437Z,91.00
2019-02-17T05:27:25.795Z,91.00
2019-02-17T05:30:01.733Z,91.40
2019-02-17T05:32:32.080Z,91.10
2019-02-17T05:35:02.415Z,90.80
2019-02-17T05:37:32.764Z,91.00
2019-02-17T05:40:03.174Z,90.90
2019-02-17T05:42:33.518Z,90.90
2019-02-17T05:45:05.103Z,90.90
2019-02-17T05:47:35.465Z,90.80
2019-02-17T05:50:07.707Z,90.80
2019-02-17T05:52:38.062Z,91.00
2019-02-17T05:55:08.537Z,91.10
2019-02-17T05:57:38.908Z,91.10
2019-02-17T06:00:12.270Z,91.20
2019-02-17T06:02:42.612Z,91.00
2019-02-17T06:05:12.955Z,91.00
2019-02-17T06:07:43.327Z,91.20
2019-02-17T06:10:13.641Z,91.50
2019-02-17T06:12:43.996Z,91.20
2019-02-17T06:15:14.322Z,91.30
2019-02-17T06:18:04.981Z,91.20
2019-02-17T06:20:35.314Z,91.40
2019-02-17T06:23:25.967Z,91.30
2019-02-17T06:25:56.313Z,91.50
2019-02-17T06:28:26.660Z,91.60
2019-02-17T06:30:57.013Z,91.70
2019-02-17T06:33:27.359Z,91.50
2019-02-17T06:35:57.725Z,91.60
2019-02-17T06:38:28.159Z,91.40
2019-02-17T06:40:58.508Z,91.40
2019-02-17T06:43:28.862Z,91.40
2019-02-17T06:45:59.359Z,91.40
2019-02-17T06:48:29.725Z,91.40
2019-02-17T06:51:00.079Z,91.40
2019-02-17T06:53:30.424Z,91.50
2019-02-17T06:56:02.482Z,91.40
2019-02-17T06:58:32.835Z,91.40
2019-02-17T07:01:03.345Z,91.40
2019-02-17T07:03:33.690Z,91.50
2019-02-17T07:06:08.354Z,91.60
2019-02-17T07:08:38.705Z,91.70
2019-02-17T07:11:09.045Z,91.80
2019-02-17T07:13:39.393Z,91.90
2019-02-17T07:16:09.722Z,91.70
2019-02-17T07:18:40.075Z,91.60
2019-02-17T07:21:10.412Z,91.50
2019-02-17T07:23:40.761Z,91.50
2019-02-17T07:26:11.093Z,91.40
2019-02-17T07:28:41.431Z,91.30
2019-02-17T07:31:15.404Z,91.30
2019-02-17T07:33:45.751Z,91.10
2019-02-17T07:36:16.094Z,90.70
2019-02-17T07:38:46.440Z,90.70
2019-02-17T07:41:16.774Z,90.10
2019-02-17T07:43:47.141Z,90.20
2019-02-17T07:46:17.483Z,89.90
2019-02-17T07:48:47.820Z,89.90
2019-02-17T07:51:18.169Z,89.20
2019-02-17T07:53:48.529Z,88.90
2019-02-17T07:56:18.878Z,88.30
2019-02-17T07:58:49.231Z,89.10
2019-02-17T08:01:20.536Z,87.80
2019-02-17T08:03:51.733Z,87.70
2019-02-17T08:06:22.068Z,87.00
2019-02-17T08:08:52.411Z,86.60
2019-02-17T08:11:22.745Z,86.40
2019-02-17T08:13:54.070Z,86.10
2019-02-17T08:16:24.397Z,85.80
2019-02-17T08:18:54.752Z,85.60
2019-02-17T08:21:25.096Z,85.70
2019-02-17T08:23:55.452Z,85.80
2019-02-17T08:26:25.787Z,85.40
2019-02-17T08:28:56.139Z,84.80
2019-02-17T08:31:26.541Z,84.60
2019-02-17T08:33:56.894Z,84.20
2019-02-17T08:36:27.268Z,83.70
2019-02-17T08:38:57.652Z,83.30
2019-02-17T08:41:27.997Z,82.60
2019-02-17T08:44:00.776Z,82.20
2019-02-17T08:46:30.482Z,82.10
2019-02-17T08:49:01.883Z,81.60
2019-02-17T08:51:32.244Z,80.90
2019-02-17T08:54:04.207Z,79.80
2019-02-17T08:56:34.555Z,80.30
2019-02-17T08:59:04.911Z,79.90
2019-02-17T09:01:35.263Z,79.60
2019-02-17T09:04:05.610Z,78.90
2019-02-17T09:06:35.975Z,78.50
2019-02-17T09:09:06.771Z,78.80
2019-02-17T09:11:37.114Z,78.10
2019-02-17T09:14:07.481Z,77.70
2019-02-17T09:16:37.824Z,76.90
2019-02-17T09:19:08.168Z,75.60
2019-02-17T09:21:38.514Z,74.50
2019-02-17T09:24:08.870Z,75.60
2019-02-17T09:26:39.220Z,75.60
2019-02-17T09:29:09.562Z,74.90
2019-02-17T09:31:39.907Z,74.50
2019-02-17T09:34:10.264Z,75.00
2019-02-17T09:36:40.605Z,74.10
2019-02-17T09:39:11.030Z,73.30
2019-02-17T09:41:41.371Z,73.50
2019-02-17T09:44:11.725Z,71.50
2019-02-17T09:46:42.062Z,72.50
2019-02-17T09:49:12.422Z,71.10
2019-02-17T09:51:42.758Z,70.40
2019-02-17T09:54:13.109Z,70.60
2019-02-17T09:56:43.464Z,69.40
2019-02-17T09:59:13.818Z,70.20
2019-02-17T10:01:44.166Z,69.10
2019-02-17T10:04:14.683Z,69.40
2019-02-17T10:06:45.029Z,68.60
2019-02-17T10:09:15.390Z,66.80
2019-02-17T10:11:45.793Z,63.60
2019-02-17T10:14:16.101Z,60.80
2019-02-17T10:16:46.455Z,60.60
2019-02-17T10:19:16.816Z,61.40
2019-02-17T10:21:47.160Z,59.30
2019-02-17T10:24:17.526Z,61.20
2019-02-17T10:26:48.032Z,60.90
2019-02-17T10:29:18.307Z,59.60
2019-02-17T10:31:48.660Z,57.60
2019-02-17T10:34:19.017Z,56.20
2019-02-17T10:36:49.365Z,58.50
2019-02-17T10:39:19.751Z,56.80
2019-02-17T10:41:50.100Z,56.50
2019-02-17T10:44:20.462Z,56.50
2019-02-17T10:46:50.818Z,56.40
2019-02-17T10:49:21.477Z,55.60
2019-02-17T10:51:51.831Z,53.80
2019-02-17T10:54:23.118Z,54.10
2019-02-17T10:56:53.625Z,54.70
2019-02-17T10:59:23.982Z,54.70
2019-02-17T11:01:54.340Z,53.90
2019-02-17T11:04:24.698Z,52.60
2019-02-17T11:06:55.111Z,53.10
2019-02-17T11:09:25.472Z,52.70
2019-02-17T11:11:55.810Z,51.60
2019-02-17T11:14:26.164Z,53.40
2019-02-17T11:16:56.505Z,52.30
2019-02-17T11:19:26.863Z,50.80
2019-02-17T11:21:57.205Z,49.90
2019-02-17T11:24:27.566Z,50.00
2019-02-17T11:26:57.911Z,49.40
2019-02-17T11:29:28.268Z,50.30
2019-02-17T11:31:58.632Z,51.30
2019-02-17T11:34:29.017Z,52.10
2019-02-17T11:36:59.364Z,51.90
2019-02-17T11:39:29.801Z,51.00
2019-02-17T11:42:01.790Z,52.40
2019-02-17T11:44:32.155Z,51.20
2019-02-17T11:47:02.532Z,50.30
2019-02-17T11:49:45.172Z,50.40
2019-02-17T11:52:15.522Z,49.30
2019-02-17T11:54:47.625Z,50.50
2019-02-17T11:57:18.104Z,50.50
2019-02-17T11:59:48.469Z,49.30
2019-02-17T12:02:24.912Z,49.60
2019-02-17T12:04:50.877Z,50.30
2019-02-17T12:07:21.228Z,48.60
2019-02-17T12:09:51.596Z,48.70
2019-02-17T12:12:21.959Z,49.80
2019-02-17T12:14:52.328Z,49.50
2019-02-17T12:17:22.671Z,50.30
2019-02-17T12:19:54.669Z,49.10
2019-02-17T12:22:26.680Z,49.80
2019-02-17T12:24:58.797Z,49.50
2019-02-17T12:27:30.786Z,48.30
2019-02-17T12:30:02.435Z,49.80
2019-02-17T12:32:32.775Z,50.10
2019-02-17T12:35:03.142Z,50.30
2019-02-17T12:37:33.495Z,51.10
2019-02-17T12:40:05.301Z,46.90
2019-02-17T12:42:35.643Z,48.60
2019-02-17T12:45:12.194Z,48.70
2019-02-17T12:47:43.177Z,48.90
2019-02-17T12:50:14.508Z,49.20
2019-02-17T12:52:47.452Z,49.70
2019-02-17T12:55:18.051Z,48.40
2019-02-17T12:57:48.406Z,49.30
2019-02-17T13:00:19.152Z,49.00
2019-02-17T13:02:49.508Z,48.90
2019-02-17T13:05:19.935Z,49.60
2019-02-17T13:07:50.355Z,48.30
2019-02-17T13:10:20.722Z,48.50
2019-02-17T13:12:51.066Z,49.40
2019-02-17T13:15:21.420Z,50.10
2019-02-17T13:17:53.037Z,49.80
2019-02-17T13:20:23.530Z,51.60
2019-02-17T13:22:53.871Z,50.10
2019-02-17T13:25:24.235Z,50.10
2019-02-17T13:27:54.606Z,50.80
2019-02-17T13:30:26.991Z,50.90
2019-02-17T13:32:57.341Z,50.80
2019-02-17T13:35:27.846Z,50.70
2019-02-17T13:37:58.201Z,50.70
2019-02-17T13:40:28.564Z,50.70
2019-02-17T13:42:58.912Z,50.70
2019-02-17T13:45:29.291Z,50.40
2019-02-17T13:47:59.654Z,50.10
2019-02-17T13:50:29.997Z,49.80
2019-02-17T13:53:10.983Z,50.80
2019-02-17T13:55:32.418Z,50.50
2019-02-17T13:58:02.763Z,50.70
2019-02-17T14:00:33.114Z,51.00
2019-02-17T14:03:04.569Z,51.00
2019-02-17T14:05:35.981Z,50.90
2019-02-17T14:08:06.329Z,51.10
2019-02-17T14:10:36.715Z,50.60
2019-02-17T14:13:07.060Z,51.00
2019-02-17T14:15:37.440Z,50.80
2019-02-17T14:18:07.778Z,50.90
2019-02-17T14:20:38.147Z,50.70
2019-02-17T14:23:09.479Z,50.80
2019-02-17T14:25:39.835Z,50.40
2019-02-17T14:28:11.164Z,49.80
2019-02-17T14:30:41.517Z,50.40
2019-02-17T14:33:11.875Z,50.30
2019-02-17T14:35:42.220Z,49.90
2019-02-17T14:38:12.579Z,50.20
2019-02-17T14:40:42.921Z,50.10
2019-02-17T14:43:13.288Z,49.40
2019-02-17T14:45:43.639Z,49.50
2019-02-17T14:48:14.004Z,49.60
2019-02-17T14:50:44.346Z,50.50
2019-02-17T14:53:16.155Z,50.20
2019-02-17T14:55:46.635Z,50.40
2019-02-17T14:58:16.994Z,50.90
2019-02-17T15:00:47.344Z,50.60
2019-02-17T15:03:17.712Z,50.70
2019-02-17T15:05:48.057Z,50.30
2019-02-17T15:08:18.403Z,50.20
2019-02-17T15:10:48.763Z,50.40
2019-02-17T15:13:24.575Z,50.50
2019-02-17T15:15:51.162Z,50.00
2019-02-17T15:18:21.541Z,50.30
2019-02-17T15:20:51.873Z,50.40
2019-02-17T15:23:22.242Z,50.80
2019-02-17T15:25:52.583Z,51.10
2019-02-17T15:28:22.942Z,51.10
2019-02-17T15:30:53.281Z,50.70
2019-02-17T15:33:23.645Z,50.90
2019-02-17T15:35:53.989Z,50.80
2019-02-17T15:38:24.425Z,50.80
2019-02-17T15:40:54.798Z,50.40
2019-02-17T15:43:25.177Z,50.90
2019-02-17T15:45:55.512Z,51.10
2019-02-17T15:48:25.999Z,51.20
2019-02-17T16:04:28.480Z,52.00
2019-02-17T16:06:57.000Z,52.30
2019-02-17T16:09:27.356Z,52.10
2019-02-17T16:11:57.715Z,52.30
2019-02-17T16:14:28.073Z,52.40
2019-02-17T16:16:58.423Z,52.20
2019-02-17T16:19:30.392Z,52.70
2019-02-17T16:22:00.749Z,52.60
2019-02-17T16:40:43.584Z,53.40
2019-02-17T16:43:13.942Z,53.70
2019-02-17T16:45:44.375Z,53.70
2019-02-17T16:48:14.733Z,53.90
2019-02-17T16:50:45.096Z,54.10
2019-02-17T16:53:15.446Z,54.30
2019-02-17T16:55:45.810Z,54.70
2019-02-17T16:58:16.161Z,55.00
2019-02-17T17:00:46.512Z,54.80
2019-02-17T17:03:16.868Z,54.70
2019-02-17T17:05:47.531Z,54.90
2019-02-17T17:08:17.916Z,55.30
2019-02-17T17:10:48.278Z,55.70
2019-02-17T17:13:18.715Z,55.90
2019-02-17T17:15:49.058Z,56.10
2019-02-17T17:18:19.414Z,56.00
2019-02-17T17:20:49.771Z,56.10
2019-02-17T17:23:20.128Z,56.10
2019-02-17T17:25:50.470Z,56.30
2019-02-17T17:28:20.834Z,56.80
2019-02-17T17:30:51.180Z,56.80
2019-02-17T17:33:21.547Z,57.20
2019-02-17T17:35:51.900Z,57.60
2019-02-17T17:38:22.927Z,57.80
2019-02-17T17:40:53.263Z,58.10
2019-02-17T17:43:23.667Z,58.40
2019-02-17T17:45:55.031Z,58.70
2019-02-17T17:48:25.392Z,58.90
2019-02-17T17:50:55.746Z,59.40
2019-02-17T17:53:26.109Z,59.70
2019-02-17T17:55:56.468Z,60.10
2019-02-17T17:58:26.826Z,60.20
2019-02-17T18:00:57.185Z,60.40
2019-02-17T18:03:27.599Z,60.70
2019-02-17T18:05:58.012Z,61.00
2019-02-17T18:08:28.372Z,62.40
2019-02-17T18:10:58.717Z,62.40
2019-02-17T18:13:29.083Z,62.70
2019-02-17T18:15:59.422Z,63.00
2019-02-17T18:18:29.755Z,63.20
2019-02-17T18:21:00.183Z,63.20
2019-02-17T18:23:30.520Z,64.90
2019-02-17T18:26:00.909Z,64.50
2019-02-17T18:28:31.266Z,64.80
2019-02-17T18:31:01.622Z,65.10
2019-02-17T18:33:31.979Z,65.20
2019-02-17T18:36:02.335Z,65.50
2019-02-17T18:38:33.656Z,65.60
2019-02-17T18:41:04.014Z,66.10
2019-02-17T18:43:34.354Z,66.30
2019-02-17T18:46:06.671Z,66.50
2019-02-17T18:48:37.013Z,66.30
2019-02-17T18:51:07.494Z,66.10
2019-02-17T18:53:37.845Z,66.00
2019-02-17T18:56:08.191Z,66.10
2019-02-17T18:58:38.659Z,66.10
2019-02-17T19:01:16.987Z,66.20
2019-02-17T19:03:47.345Z,66.20
2019-02-17T19:06:17.703Z,66.40
2019-02-17T19:08:48.048Z,66.60
2019-02-17T19:11:18.392Z,66.70
2019-02-17T19:13:48.743Z,67.00
2019-02-17T19:16:19.087Z,67.40
2019-02-17T19:18:49.427Z,67.80
2019-02-17T19:21:19.793Z,67.90
2019-02-17T19:23:50.138Z,68.30
2019-02-17T19:26:20.492Z,68.40
2019-02-17T19:28:50.841Z,68.60
2019-02-17T19:31:21.199Z,68.70
2019-02-17T19:33:51.551Z,69.10
2019-02-17T19:36:21.935Z,70.00
2019-02-17T19:38:52.304Z,69.40
2019-02-17T19:41:22.643Z,69.60
2019-02-17T19:43:53.023Z,70.40
2019-02-17T19:46:23.402Z,69.90
2019-02-17T19:48:56.581Z,70.30
2019-02-17T19:51:26.929Z,70.10
2019-02-17T19:53:57.271Z,70.10
2019-02-17T19:56:27.637Z,70.30
2019-02-17T19:58:57.977Z,70.50
2019-02-17T20:01:28.327Z,70.60
2019-02-17T20:04:09.260Z,70.70
2019-02-17T20:06:39.627Z,70.70
2019-02-17T20:09:15.364Z,70.80
2019-02-17T20:11:45.675Z,71.10
2019-02-17T20:14:16.031Z,71.30
2019-02-17T20:16:46.374Z,71.30
2019-02-17T20:19:16.714Z,71.40
2019-02-17T20:21:47.081Z,71.60
2019-02-17T20:24:17.420Z,71.90
2019-02-17T20:26:48.031Z,71.90
2019-02-17T20:29:18.291Z,72.00
2019-02-17T20:31:48.645Z,72.80
2019-02-17T20:34:19.001Z,72.20
2019-02-17T20:36:49.371Z,72.50
2019-02-17T20:39:19.708Z,72.50
2019-02-17T20:41:50.059Z,72.70
2019-02-17T20:44:20.395Z,73.20
2019-02-17T20:46:50.767Z,73.10
2019-02-17T20:49:21.109Z,73.20
2019-02-17T20:52:04.023Z,73.30
2019-02-17T20:54:34.368Z,73.30
2019-02-17T20:57:05.207Z,73.60
2019-02-17T20:59:35.550Z,73.90
2019-02-17T21:02:05.974Z,74.00
2019-02-17T21:04:36.316Z,74.00
2019-02-17T21:07:06.675Z,74.20
2019-02-17T21:09:37.019Z,74.40
2019-02-17T21:12:07.373Z,74.60
2019-02-17T21:14:37.722Z,74.80
2019-02-17T21:17:08.068Z,74.50
2019-02-17T21:19:38.711Z,74.60
2019-02-17T21:22:09.152Z,74.50
2019-02-17T21:24:40.473Z,74.40
2019-02-17T21:27:10.832Z,74.40
2019-02-17T21:29:41.176Z,74.50
2019-02-17T21:32:11.523Z,74.70
2019-02-17T21:34:41.869Z,74.60
2019-02-17T21:37:12.236Z,74.60
2019-02-17T21:39:42.573Z,74.90
2019-02-17T21:42:13.358Z,74.80
2019-02-17T21:44:43.712Z,75.10
2019-02-17T21:47:14.072Z,75.00
2019-02-17T21:49:44.405Z,75.10
2019-02-17T21:52:14.762Z,75.10
2019-02-17T21:54:45.116Z,75.20
2019-02-17T21:57:15.462Z,75.30
2019-02-17T21:59:45.797Z,75.60
2019-02-17T22:02:16.154Z,75.50
2019-02-17T22:04:46.521Z,76.70
2019-02-17T22:07:16.876Z,75.80
2019-02-17T22:09:47.222Z,76.00
2019-02-17T22:12:17.577Z,76.00
2019-02-17T22:14:47.916Z,76.10
2019-02-17T22:17:18.279Z,75.90
2019-02-17T22:19:48.625Z,76.10
2019-02-17T22:22:18.990Z,76.10
2019-02-17T22:24:49.326Z,76.20
2019-02-17T22:27:20.649Z,76.20
2019-02-17T22:29:50.990Z,76.20
2019-02-17T22:32:21.341Z,76.40
2019-02-17T22:34:52.654Z,76.50
2019-02-17T22:37:23.015Z,76.30
2019-02-17T22:39:53.354Z,76.40
2019-02-17T22:42:23.767Z,76.50
2019-02-17T22:44:54.101Z,76.70
2019-02-17T22:47:24.460Z,76.80
2019-02-17T22:49:54.794Z,76.80
2019-02-17T22:52:25.159Z,77.00
2019-02-17T22:54:55.496Z,77.10
2019-02-17T22:57:25.844Z,77.20
2019-02-17T22:59:56.171Z,77.40
2019-02-17T23:02:26.608Z,77.50
2019-02-17T23:04:56.949Z,77.70
2019-02-17T23:07:27.297Z,77.80
2019-02-17T23:09:57.634Z,77.90
2019-02-17T23:12:27.993Z,77.90
2019-02-17T23:14:58.322Z,78.00
2019-02-17T23:17:28.763Z,78.10
2019-02-17T23:20:00.405Z,78.20
2019-02-17T23:22:30.718Z,78.30
2019-02-17T23:25:01.393Z,78.40
2019-02-17T23:27:31.741Z,78.50
2019-02-17T23:30:02.080Z,78.70
2019-02-17T23:32:32.691Z,78.70
2019-02-17T23:35:03.055Z,78.80
2019-02-17T23:37:33.397Z,78.90
2019-02-17T23:40:05.263Z,78.90
2019-02-17T23:42:35.609Z,79.20
2019-02-17T23:45:29.090Z,79.30
2019-02-17T23:48:00.016Z,79.40
2019-02-17T23:50:30.895Z,79.30
2019-02-17T23:53:01.253Z,79.40
2019-02-17T23:55:31.564Z,79.50
2019-02-17T23:58:01.966Z,79.60
